Time;durP1;ratioP1;P1;durP2;ratioP2;P2;SDS_P1;SDS_P2;PMS_P1;PMS_P2;Temp;Humidity;BMP_temperature;BMP_pressure;BME280_temperature;BME280_humidity;BME280_pressure;Samples;Min_cycle;Max_cycle;Signal;HPM_P1;HPM_P2
2021/03/11 00:01:56;;;;;;;44.22;25.10;;;;;;;5.30;81.17;100383.34;10209647;28;20046;-70
2021/03/11 00:06:52;;;;;;;44.95;24.85;;;;;;;5.21;82.14;100375.84;10206707;28;20173;-70
2021/03/11 00:11:48;;;;;;;47.72;25.90;;;;;;;5.15;83.77;100366.19;10210483;28;20151;-70
2021/03/11 00:16:44;;;;;;;50.15;25.80;;;;;;;5.26;82.86;100339.75;10220707;28;20048;-70
2021/03/11 00:21:40;;;;;;;46.53;24.90;;;;;;;5.19;84.15;100334.69;10215274;28;20471;-69
2021/03/11 00:26:36;;;;;;;46.92;25.27;;;;;;;5.16;84.10;100321.72;10216571;28;20045;-69
2021/03/11 00:31:32;;;;;;;50.03;27.17;;;;;;;5.06;85.01;100302.91;10215362;28;20053;-69
2021/03/11 00:36:28;;;;;;;51.35;28.70;;;;;;;5.09;85.01;100301.50;10222005;28;20232;-69
2021/03/11 00:41:24;;;;;;;50.88;26.85;;;;;;;5.03;85.28;100287.19;10208700;28;20578;-68
2021/03/11 00:46:20;;;;;;;54.83;28.70;;;;;;;5.03;85.62;100262.81;10207860;28;20574;-69
2021/03/11 00:51:16;;;;;;;59.90;30.23;;;;;;;4.96;86.20;100262.38;10211721;28;20411;-68
2021/03/11 00:56:22;;;;;;;53.60;29.73;;;;;;;4.91;86.75;100257.03;10222379;28;20045;-68
2021/03/11 01:01:18;;;;;;;53.90;30.48;;;;;;;4.81;87.04;100237.09;10217127;28;20038;-68
2021/03/11 01:06:14;;;;;;;62.60;31.42;;;;;;;4.79;87.03;100214.91;10210094;28;20061;-68
2021/03/11 01:11:10;;;;;;;58.45;31.20;;;;;;;4.71;87.34;100193.91;10217972;28;20049;-70
2021/03/11 01:16:06;;;;;;;51.28;27.67;;;;;;;4.82;87.14;100184.53;10218151;28;20103;-70
2021/03/11 01:21:02;;;;;;;57.88;30.35;;;;;;;4.83;88.16;100163.69;10216449;28;20053;-69
2021/03/11 01:25:58;;;;;;;58.30;31.58;;;;;;;4.81;88.10;100145.00;10208089;28;20104;-71
2021/03/11 01:30:57;;;;;;;43.70;24.25;;;;;;;4.60;87.34;100128.22;10208160;28;20057;-70
2021/03/11 01:35:53;;;;;;;51.75;28.77;;;;;;;4.71;88.20;100117.25;10211769;28;20053;-69
2021/03/11 01:40:49;;;;;;;51.80;27.15;;;;;;;4.63;88.26;100099.75;10195399;28;20050;-71
2021/03/11 01:45:45;;;;;;;47.25;27.25;;;;;;;4.57;89.07;100103.63;10195860;28;20085;-70
2021/03/11 01:50:41;;;;;;;41.88;24.40;;;;;;;4.57;88.42;100103.63;10202556;28;20553;-70
2021/03/11 01:55:37;;;;;;;39.90;22.00;;;;;;;4.58;87.06;100097.94;10205679;28;20068;-69
2021/03/11 02:00:33;;;;;;;43.45;23.92;;;;;;;4.53;87.62;100083.69;10206171;28;20053;-70
2021/03/11 02:05:29;;;;;;;39.58;23.15;;;;;;;4.55;88.29;100065.22;10200533;28;20111;-69
2021/03/11 02:10:27;;;;;;;41.53;22.67;;;;;;;4.54;87.85;100031.13;10207809;28;20049;-71
2021/03/11 02:15:31;;;;;;;41.60;22.75;;;;;;;4.56;88.83;100020.81;10211486;28;20229;-71
2021/03/11 02:20:52;;;;;;;43.65;24.48;;;;;;;4.47;89.20;99993.59;10209026;28;20864;-70
2021/03/11 02:26:12;;;;;;;44.47;23.85;;;;;;;4.47;88.97;99968.44;10217152;28;20412;-70
2021/03/11 02:31:09;;;;;;;39.00;22.10;;;;;;;4.46;88.99;99947.91;10208562;28;20115;-70
2021/03/11 02:36:06;;;;;;;38.95;23.30;;;;;;;4.42;88.93;99937.63;10220348;28;20041;-70
2021/03/11 02:41:03;;;;;;;40.22;22.02;;;;;;;4.47;88.71;99911.59;10199183;28;20045;-71
2021/03/11 02:46:00;;;;;;;42.38;23.85;;;;;;;4.45;89.43;99902.97;10200711;28;20045;-71
2021/03/11 02:50:57;;;;;;;44.90;24.63;;;;;;;4.47;89.34;99879.91;10214351;28;20050;-71
2021/03/11 02:55:56;;;;;;;45.22;24.17;;;;;;;4.46;89.12;99861.28;10199698;28;20049;-72
2021/03/11 03:00:53;;;;;;;47.10;26.92;;;;;;;4.46;89.29;99845.81;10205744;28;20161;-72
2021/03/11 03:05:51;;;;;;;49.72;25.90;;;;;;;4.43;90.57;99830.16;10223940;28;20518;-71
2021/03/11 03:10:48;;;;;;;44.17;25.02;;;;;;;4.45;90.67;99810.94;10211705;28;20053;-72
2021/03/11 03:15:44;;;;;;;49.88;27.83;;;;;;;4.45;90.65;99805.50;10207852;28;20100;-71
2021/03/11 03:20:41;;;;;;;71.20;32.30;;;;;;;4.34;91.03;99794.88;10211745;28;20057;-71
2021/03/11 03:25:38;;;;;;;54.33;28.52;;;;;;;4.39;91.56;99780.47;10216865;28;20057;-71
2021/03/11 03:30:34;;;;;;;43.78;25.60;;;;;;;4.47;91.17;99763.50;10219317;28;20115;-72
2021/03/11 03:35:30;;;;;;;46.45;26.85;;;;;;;4.46;91.89;99753.00;10202162;28;20054;-73
2021/03/11 03:40:26;;;;;;;39.08;23.27;;;;;;;4.50;91.61;99743.16;10215912;28;20053;-73
2021/03/11 03:45:29;;;;;;;40.35;23.30;;;;;;;4.58;91.35;99727.00;10206877;28;20045;-73
2021/03/11 03:50:26;;;;;;;40.25;22.55;;;;;;;4.63;90.85;99720.69;10211310;28;20132;-71
2021/03/11 03:55:23;;;;;;;37.13;22.35;;;;;;;4.63;91.50;99709.88;10221350;28;20064;-72
2021/03/11 04:00:21;;;;;;;39.67;21.08;;;;;;;4.58;91.18;99705.34;10194419;28;20042;-72
2021/03/11 04:05:19;;;;;;;39.90;21.05;;;;;;;4.61;91.88;99712.06;10206812;28;20050;-72
2021/03/11 04:10:15;;;;;;;36.20;21.38;;;;;;;4.67;91.39;99700.03;10212846;28;20038;-71
2021/03/11 04:15:12;;;;;;;38.35;22.48;;;;;;;4.64;92.07;99695.22;10209286;28;20057;-72
2021/03/11 04:20:09;;;;;;;37.30;21.90;;;;;;;4.68;91.89;99679.97;10206605;28;20080;-71
2021/03/11 04:25:05;;;;;;;38.45;21.95;;;;;;;4.68;92.08;99674.56;10206222;28;20042;-71
2021/03/11 04:30:04;;;;;;;47.53;24.88;;;;;;;4.62;92.31;99656.84;10210627;28;20053;-72
2021/03/11 04:35:01;;;;;;;36.72;21.25;;;;;;;4.74;92.04;99651.69;10205782;28;20057;-72
2021/03/11 04:39:57;;;;;;;37.30;22.27;;;;;;;4.63;92.39;99644.88;10210755;28;20083;-73
2021/03/11 04:44:53;;;;;;;39.80;24.02;;;;;;;4.72;92.65;99624.09;10216904;28;20063;-73
2021/03/11 04:49:50;;;;;;;42.72;23.45;;;;;;;4.65;92.33;99626.44;10215933;28;20072;-72
2021/03/11 04:54:47;;;;;;;49.53;24.98;;;;;;;4.61;92.76;99615.41;10206851;28;20635;-72
2021/03/11 04:59:43;;;;;;;42.47;23.20;;;;;;;4.76;93.29;99616.97;10210460;28;20052;-74
2021/03/11 05:04:42;;;;;;;38.20;22.70;;;;;;;4.75;93.21;99604.53;10210960;28;20042;-72
2021/03/11 05:09:38;;;;;;;36.97;21.05;;;;;;;4.68;93.10;99604.16;10213043;28;20045;-72
2021/03/11 05:14:34;;;;;;;41.17;23.20;;;;;;;4.70;93.04;99569.44;10207240;28;20046;-71
2021/03/11 05:19:30;;;;;;;37.13;21.80;;;;;;;4.72;93.01;99572.66;10207954;28;20054;-71
2021/03/11 05:24:26;;;;;;;40.42;22.42;;;;;;;4.78;93.68;99571.44;10200762;28;20060;-71
2021/03/11 05:29:41;;;;;;;34.90;20.85;;;;;;;4.79;92.89;99540.53;10202363;28;20046;-71
2021/03/11 05:34:37;;;;;;;38.72;22.45;;;;;;;4.76;93.08;99535.75;10209796;28;20060;-73
2021/03/11 05:39:34;;;;;;;35.95;20.65;;;;;;;4.90;93.07;99540.25;10217334;28;20053;-73
2021/03/11 05:44:31;;;;;;;35.33;19.75;;;;;;;4.84;92.93;99526.84;10219694;28;20587;-72
2021/03/11 05:49:27;;;;;;;36.35;21.08;;;;;;;4.85;93.39;99523.06;10210937;28;20057;-73
2021/03/11 05:54:23;;;;;;;36.13;19.75;;;;;;;4.92;93.28;99510.97;10208592;28;20053;-72
2021/03/11 05:59:19;;;;;;;29.58;19.80;;;;;;;4.94;93.28;99514.16;10201482;28;20073;-72
2021/03/11 06:04:16;;;;;;;32.75;19.52;;;;;;;4.96;93.39;99501.91;10202155;28;20069;-72
2021/03/11 06:09:12;;;;;;;34.38;20.35;;;;;;;4.97;92.84;99475.66;10205165;28;20041;-73
2021/03/11 06:14:12;;;;;;;36.28;19.80;;;;;;;5.01;93.11;99450.34;10204361;28;20566;-72
2021/03/11 06:19:08;;;;;;;30.58;19.13;;;;;;;5.01;93.01;99438.69;10210526;28;20053;-72
2021/03/11 06:24:05;;;;;;;28.88;17.60;;;;;;;5.08;93.38;99422.78;10218985;28;20075;-70
2021/03/11 06:29:01;;;;;;;31.48;20.13;;;;;;;5.07;93.54;99415.75;10212868;28;20065;-71
2021/03/11 06:33:59;;;;;;;29.88;18.73;;;;;;;5.08;93.87;99401.09;10213487;28;20515;-72
2021/03/11 06:38:57;;;;;;;28.60;18.42;;;;;;;5.11;92.85;99403.19;10208371;28;20057;-72
2021/03/11 06:44:01;;;;;;;29.63;17.75;;;;;;;5.15;92.82;99376.25;10209561;28;20061;-72
2021/03/11 06:49:10;;;;;;;28.50;18.33;;;;;;;5.19;93.42;99363.69;10200657;28;20061;-71
2021/03/11 06:54:08;;;;;;;29.58;18.05;;;;;;;5.20;93.52;99355.25;10201357;28;20057;-73
2021/03/11 06:59:06;;;;;;;27.50;17.88;;;;;;;5.24;93.54;99372.47;10197275;28;20045;-72
2021/03/11 07:04:02;;;;;;;25.42;15.85;;;;;;;5.22;93.34;99350.31;10207268;28;20518;-73
2021/03/11 07:08:59;;;;;;;25.88;15.35;;;;;;;5.24;93.65;99344.56;10201420;28;20049;-71
2021/03/11 07:13:57;;;;;;;30.33;19.40;;;;;;;5.21;94.03;99346.00;10209353;28;20057;-72
2021/03/11 07:19:13;;;;;;;26.88;15.52;;;;;;;5.34;93.50;99321.78;10202600;28;20516;-73
2021/03/11 07:24:11;;;;;;;23.65;15.32;;;;;;;5.41;93.60;99322.13;10203654;28;20053;-72
2021/03/11 07:29:34;;;;;;;22.00;14.57;;;;;;;5.44;93.77;99316.06;10217948;28;20045;-72
2021/03/11 07:34:34;;;;;;;22.30;13.27;;;;;;;5.58;93.25;99305.06;10198298;28;20107;-73
2021/03/11 07:39:42;;;;;;;20.23;12.80;;;;;;;5.66;93.52;99317.81;10195436;28;20050;-72
2021/03/11 07:44:38;;;;;;;19.00;11.43;;;;;;;5.80;92.74;99295.97;10205519;28;20636;-71
2021/03/11 07:49:38;;;;;;;19.45;11.55;;;;;;;5.89;92.69;99283.19;10212419;28;20054;-69
2021/03/11 07:54:35;;;;;;;18.73;12.32;;;;;;;5.99;92.74;99261.19;10206501;28;20088;-70
2021/03/11 07:59:32;;;;;;;19.55;11.77;;;;;;;6.04;93.46;99252.88;10206353;28;20054;-70
2021/03/11 08:04:34;;;;;;;15.60;10.77;;;;;;;6.08;92.77;99245.69;10208290;28;20054;-67
2021/03/11 08:09:38;;;;;;;21.33;13.48;;;;;;;6.13;92.76;99241.19;10203221;28;20059;-68
2021/03/11 08:14:34;;;;;;;18.48;12.00;;;;;;;6.17;93.19;99223.13;10207931;28;20453;-69
2021/03/11 08:19:34;;;;;;;18.50;12.63;;;;;;;6.23;92.93;99221.84;10218998;28;20053;-69
2021/03/11 08:24:39;;;;;;;21.80;12.80;;;;;;;6.30;92.98;99212.06;10213218;28;20053;-70
2021/03/11 08:29:35;;;;;;;20.45;12.88;;;;;;;6.33;93.08;99199.75;10228231;28;20143;-70
2021/03/11 08:34:38;;;;;;;21.25;13.38;;;;;;;6.42;93.08;99203.22;10210699;28;20100;-68
2021/03/11 08:39:35;;;;;;;19.13;12.70;;;;;;;6.58;92.83;99184.47;10209868;28;20055;-69
2021/03/11 08:44:45;;;;;;;18.15;11.55;;;;;;;6.61;92.30;99183.00;10208855;28;20137;-69
2021/03/11 08:49:43;;;;;;;19.67;13.45;;;;;;;6.63;93.17;99183.47;10206486;28;20414;-69
2021/03/11 08:54:39;;;;;;;20.23;13.40;;;;;;;6.66;93.66;99147.50;10216793;28;20157;-70
2021/03/11 08:59:53;;;;;;;21.23;13.07;;;;;;;6.70;93.42;99162.03;10208928;28;20059;-70
2021/03/11 09:04:49;;;;;;;17.25;10.77;;;;;;;6.75;93.24;99137.38;10205751;28;20103;-69
2021/03/11 09:09:49;;;;;;;20.90;13.80;;;;;;;6.85;92.92;99139.72;10206384;28;20067;-69
2021/03/11 09:14:54;;;;;;;16.75;11.52;;;;;;;7.00;92.47;99129.38;10217689;28;20450;-69
2021/03/11 09:20:00;;;;;;;16.63;10.93;;;;;;;7.13;91.53;99122.88;10214680;28;20501;-68
2021/03/11 09:25:10;;;;;;;15.48;9.90;;;;;;;7.31;90.54;99113.44;10206037;28;20046;-69
2021/03/11 09:30:11;;;;;;;13.73;9.15;;;;;;;7.38;89.84;99105.50;10212770;28;20058;-69
2021/03/11 09:35:09;;;;;;;15.20;9.70;;;;;;;7.64;89.04;99103.66;10207765;28;20526;-69
2021/03/11 09:40:06;;;;;;;14.02;9.07;;;;;;;7.75;88.67;99094.72;10208639;28;20054;-70
2021/03/11 09:45:03;;;;;;;15.77;7.65;;;;;;;8.19;85.50;99075.91;10216148;28;20562;-68
2021/03/11 09:50:09;;;;;;;14.38;7.70;;;;;;;8.58;84.27;99037.38;10213887;28;20760;-69
2021/03/11 09:55:07;;;;;;;12.95;7.07;;;;;;;8.79;84.72;99045.34;10212715;28;20107;-67
2021/03/11 10:00:03;;;;;;;10.90;6.25;;;;;;;9.11;81.63;99029.88;10213649;28;20045;-70
2021/03/11 10:04:59;;;;;;;9.15;5.35;;;;;;;9.45;80.53;99028.44;10215857;28;20110;-68
2021/03/11 10:09:55;;;;;;;12.45;6.47;;;;;;;9.61;78.40;99012.06;10211535;28;20698;-68
2021/03/11 10:15:05;;;;;;;10.27;6.38;;;;;;;9.87;77.07;98989.69;10204613;28;20087;-68
2021/03/11 10:20:20;;;;;;;11.23;5.15;;;;;;;10.07;74.09;99006.09;10198491;28;20172;-66
2021/03/11 10:25:18;;;;;;;7.40;4.05;;;;;;;10.19;71.60;98959.56;10207889;28;20057;-67
2021/03/11 10:30:23;;;;;;;9.10;4.20;;;;;;;10.52;71.62;98941.91;10207603;28;20445;-68
2021/03/11 10:35:30;;;;;;;8.95;4.35;;;;;;;10.57;71.32;98936.16;10194783;28;20060;-66
2021/03/11 10:40:26;;;;;;;10.18;4.25;;;;;;;10.13;72.11;98920.03;10205813;28;20057;-66
2021/03/11 10:45:36;;;;;;;12.85;4.57;;;;;;;10.25;71.22;98914.41;10214963;28;20053;-68
2021/03/11 10:50:43;;;;;;;9.80;4.68;;;;;;;10.10;70.35;98918.03;10200895;28;20050;-66
2021/03/11 10:55:42;;;;;;;9.38;4.22;;;;;;;9.94;71.67;98909.09;10198840;28;20145;-65
2021/03/11 11:00:42;;;;;;;7.38;3.80;;;;;;;10.05;71.85;98923.78;10195881;28;20056;-65
2021/03/11 11:05:38;;;;;;;7.28;3.83;;;;;;;10.41;69.78;98902.66;10208570;28;20747;-66
2021/03/11 11:10:35;;;;;;;5.82;2.97;;;;;;;10.44;68.36;98934.72;10208019;28;20049;-68
2021/03/11 11:15:32;;;;;;;5.32;2.88;;;;;;;10.19;68.71;98910.41;10205053;28;20065;-65
2021/03/11 11:20:31;;;;;;;5.43;2.40;;;;;;;10.11;68.94;98908.66;10203910;28;20065;-66
2021/03/11 11:25:27;;;;;;;8.40;3.40;;;;;;;10.34;68.85;98886.13;10209183;28;20073;-67
2021/03/11 11:30:24;;;;;;;8.35;2.80;;;;;;;10.55;66.43;98872.88;10198169;28;20065;-66
2021/03/11 11:35:21;;;;;;;6.63;2.05;;;;;;;10.80;63.49;98856.13;10190640;28;20486;-67
2021/03/11 11:40:18;;;;;;;7.63;2.17;;;;;;;10.73;63.97;98863.03;10195315;28;20046;-67
2021/03/11 11:45:15;;;;;;;6.85;1.95;;;;;;;10.32;65.79;98849.03;10206437;28;20128;-67
2021/03/11 11:50:12;;;;;;;11.25;2.38;;;;;;;10.66;64.81;98845.75;10208753;28;20046;-66
2021/03/11 11:55:10;;;;;;;9.40;2.30;;;;;;;10.74;65.94;98820.91;10202204;28;20045;-67
2021/03/11 12:00:10;;;;;;;6.38;2.40;;;;;;;11.50;63.84;98822.03;10205237;28;20066;-67
2021/03/11 12:05:07;;;;;;;8.77;3.03;;;;;;;11.40;65.15;98812.53;10212534;28;20049;-67
2021/03/11 12:10:04;;;;;;;8.63;2.03;;;;;;;11.28;64.59;98790.84;10217580;28;20076;-68
2021/03/11 12:15:00;;;;;;;6.60;2.10;;;;;;;11.22;64.35;98779.44;10167066;28;20062;-67
2021/03/11 12:19:56;;;;;;;9.43;2.50;;;;;;;11.13;64.37;98771.50;10168780;28;20137;-68
2021/03/11 12:24:52;;;;;;;5.57;1.95;;;;;;;11.14;62.80;98773.09;10158549;28;20046;-67
2021/03/11 12:29:48;;;;;;;6.72;2.10;;;;;;;11.03;62.53;98772.13;10164871;28;20558;-67
2021/03/11 12:34:55;;;;;;;14.80;2.50;;;;;;;11.09;63.87;98748.78;10165462;28;20050;-67
2021/03/11 12:39:51;;;;;;;7.60;2.53;;;;;;;10.90;64.67;98741.47;10182721;28;20190;-67
2021/03/11 12:44:47;;;;;;;9.15;2.35;;;;;;;10.78;65.90;98738.16;10166563;28;20104;-66
2021/03/11 12:49:44;;;;;;;11.38;2.40;;;;;;;10.57;67.66;98794.06;10164868;28;20140;-67
2021/03/11 12:54:40;;;;;;;16.58;3.40;;;;;;;10.34;68.71;98769.44;10173003;28;20512;-68
2021/03/11 12:59:36;;;;;;;17.10;3.20;;;;;;;10.20;68.02;98771.91;10171331;28;20141;-67
2021/03/11 13:04:32;;;;;;;13.63;2.92;;;;;;;10.08;68.69;98745.56;10173158;28;20043;-68
2021/03/11 13:09:32;;;;;;;17.63;3.08;;;;;;;9.80;70.91;98752.06;10168338;28;20128;-67
2021/03/11 13:14:30;;;;;;;13.25;2.45;;;;;;;9.76;69.95;98786.66;10174636;28;20054;-66
2021/03/11 13:19:26;;;;;;;9.80;1.77;;;;;;;9.72;69.88;98758.50;10167422;28;20512;-67
2021/03/11 13:24:22;;;;;;;10.43;1.98;;;;;;;9.49;71.52;98774.81;10169879;28;20037;-68
2021/03/11 13:29:19;;;;;;;12.93;2.13;;;;;;;9.27;73.68;98773.56;10157584;28;20120;-67
2021/03/11 13:34:15;;;;;;;13.70;3.33;;;;;;;9.04;77.04;98793.31;10162045;28;20042;-68
2021/03/11 13:39:12;;;;;;;12.40;2.63;;;;;;;8.61;80.42;98800.47;10166830;28;20077;-67
2021/03/11 13:44:08;;;;;;;11.23;3.22;;;;;;;8.36;81.01;98775.28;10173211;28;20057;-66
2021/03/11 13:49:11;;;;;;;12.82;2.00;;;;;;;8.17;82.29;98773.25;10165516;28;20122;-68
2021/03/11 13:54:08;;;;;;;13.43;3.70;;;;;;;8.16;81.68;98826.09;10161433;28;20500;-68
2021/03/11 13:59:04;;;;;;;16.92;2.70;;;;;;;8.07;83.36;98800.97;10165049;28;20050;-69
2021/03/11 14:04:00;;;;;;;12.57;2.40;;;;;;;8.01;84.29;98796.94;10168171;28;20459;-69
2021/03/11 14:08:56;;;;;;;9.45;1.90;;;;;;;7.96;83.96;98811.59;10171390;28;20132;-68
2021/03/11 14:13:52;;;;;;;17.98;2.70;;;;;;;7.92;85.30;98799.00;10168172;28;20534;-68
2021/03/11 14:18:48;;;;;;;11.30;2.95;;;;;;;7.93;84.45;98823.13;10165670;28;20111;-68
2021/03/11 14:23:44;;;;;;;11.85;2.40;;;;;;;7.91;82.73;98830.06;10175648;28;20054;-68
2021/03/11 14:28:40;;;;;;;9.27;2.38;;;;;;;7.92;83.07;98804.47;10170453;28;20122;-68
2021/03/11 14:33:36;;;;;;;9.73;2.10;;;;;;;7.98;82.76;98806.59;10175274;28;20039;-66
2021/03/11 14:38:33;;;;;;;4.15;1.08;;;;;;;7.98;81.36;98854.75;10168913;28;20042;-66
2021/03/11 14:43:30;;;;;;;6.72;2.10;;;;;;;7.89;81.91;98811.38;10173088;28;20107;-67
2021/03/11 14:48:27;;;;;;;7.47;1.30;;;;;;;7.83;82.29;98817.41;10171451;28;20066;-65
2021/03/11 14:53:24;;;;;;;5.80;1.38;;;;;;;7.72;81.49;98839.66;10167289;28;20492;-66
2021/03/11 14:58:21;;;;;;;10.95;1.77;;;;;;;7.75;82.82;98855.31;10170476;28;20129;-64
2021/03/11 15:03:17;;;;;;;10.63;2.00;;;;;;;7.70;83.47;98877.28;10166707;28;20046;-68
2021/03/11 15:08:14;;;;;;;11.43;2.00;;;;;;;7.72;82.87;98866.84;10173937;28;20489;-67
2021/03/11 15:13:10;;;;;;;13.48;2.00;;;;;;;7.70;83.11;98895.53;10163506;28;20439;-66
2021/03/11 15:18:06;;;;;;;12.35;2.75;;;;;;;7.84;81.27;98878.84;10167948;28;20086;-65
2021/03/11 15:23:03;;;;;;;13.98;2.20;;;;;;;7.77;82.04;98884.88;10169599;28;20045;-66
2021/03/11 15:27:59;;;;;;;11.52;1.98;;;;;;;7.77;80.70;98912.88;10162762;28;20054;-66
2021/03/11 15:32:55;;;;;;;11.60;1.67;;;;;;;7.49;83.32;98917.44;10171731;28;20542;-66
2021/03/11 15:37:51;;;;;;;18.70;2.10;;;;;;;7.29;85.16;98925.38;10157113;28;20606;-67
2021/03/11 15:42:47;;;;;;;12.23;1.67;;;;;;;7.32;82.67;98919.25;10168789;28;20104;-68
2021/03/11 15:47:43;;;;;;;12.05;1.92;;;;;;;7.45;80.26;98941.81;10167732;28;20086;-66
2021/03/11 15:52:40;;;;;;;12.70;1.83;;;;;;;7.51;80.62;98939.66;10168277;28;20048;-67
2021/03/11 15:57:36;;;;;;;12.68;1.98;;;;;;;7.55;79.01;98956.88;10155411;28;20041;-65
2021/03/11 16:02:32;;;;;;;10.90;2.22;;;;;;;7.49;79.21;98979.97;10168492;28;20054;-66
2021/03/11 16:07:28;;;;;;;12.48;1.83;;;;;;;7.45;79.42;98987.22;10179207;28;20061;-63
2021/03/11 16:12:24;;;;;;;14.80;1.70;;;;;;;7.41;79.32;98986.34;10185616;28;20050;-64
2021/03/11 16:17:20;;;;;;;12.75;1.38;;;;;;;7.35;80.61;99000.13;10167885;28;20042;-65
2021/03/11 16:22:17;;;;;;;7.25;1.75;;;;;;;7.35;78.47;99000.13;10165107;28;20440;-66
2021/03/11 16:27:13;;;;;;;10.65;2.22;;;;;;;7.35;77.71;99057.22;10173690;28;20046;-65
2021/03/11 16:32:10;;;;;;;13.57;1.90;;;;;;;7.43;76.10;99033.81;10172105;28;20072;-66
2021/03/11 16:37:06;;;;;;;13.70;2.00;;;;;;;7.43;75.94;99068.38;10167010;28;20056;-66
2021/03/11 16:42:03;;;;;;;14.07;2.03;;;;;;;7.46;73.66;99070.41;10174946;28;20050;-68
2021/03/11 16:47:00;;;;;;;18.55;2.05;;;;;;;7.46;72.89;99071.19;10178951;28;20447;-65
2021/03/11 16:51:56;;;;;;;22.13;2.58;;;;;;;7.44;73.01;99072.66;10166983;28;20050;-64
2021/03/11 16:56:52;;;;;;;13.20;2.00;;;;;;;7.47;68.83;99078.25;10157582;28;20050;-65
2021/03/11 17:01:48;;;;;;;14.70;2.10;;;;;;;7.43;69.53;99109.16;10160909;28;20046;-66
2021/03/11 17:06:44;;;;;;;13.25;2.75;;;;;;;7.30;70.08;99119.19;10168610;28;20140;-65
2021/03/11 17:11:40;;;;;;;16.58;1.83;;;;;;;7.15;71.03;99128.78;10173287;28;20423;-64
2021/03/11 17:16:36;;;;;;;13.77;2.30;;;;;;;7.01;71.08;99141.81;10177595;28;20566;-65
2021/03/11 17:21:33;;;;;;;15.00;2.60;;;;;;;6.93;70.50;99140.78;10166425;28;20068;-65
2021/03/11 17:26:29;;;;;;;14.20;1.27;;;;;;;6.86;70.11;99163.03;10176915;28;20077;-66
2021/03/11 17:31:26;;;;;;;10.32;1.33;;;;;;;6.86;69.64;99157.59;10175749;28;20041;-66
2021/03/11 17:36:22;;;;;;;21.95;3.03;;;;;;;6.91;70.13;99170.97;10166148;28;20047;-66
2021/03/11 17:41:19;;;;;;;11.45;3.33;;;;;;;6.95;68.12;99188.22;10179881;28;20829;-65
2021/03/11 17:46:15;;;;;;;24.77;2.72;;;;;;;6.98;67.48;99196.84;10160861;28;20054;-65
2021/03/11 17:51:11;;;;;;;15.77;3.30;;;;;;;6.94;67.35;99202.94;10170174;28;20052;-62
2021/03/11 17:56:07;;;;;;;18.13;2.00;;;;;;;6.98;67.12;99202.28;10168849;28;20061;-65
2021/03/11 18:01:04;;;;;;;10.90;1.80;;;;;;;6.97;67.04;99222.44;10166535;28;20046;-65
2021/03/11 18:06:00;;;;;;;18.58;3.20;;;;;;;7.03;65.96;99231.97;10156974;28;20046;-65
2021/03/11 18:10:56;;;;;;;15.02;2.05;;;;;;;6.98;66.27;99245.75;10171255;28;20054;-66
2021/03/11 18:15:52;;;;;;;12.48;2.03;;;;;;;6.94;66.69;99230.13;10169450;28;20045;-65
2021/03/11 18:20:48;;;;;;;19.27;2.30;;;;;;;6.90;66.36;99256.34;10170659;28;20065;-65
2021/03/11 18:25:44;;;;;;;17.88;2.45;;;;;;;6.88;67.05;99253.16;10164091;28;20042;-65
2021/03/11 18:30:40;;;;;;;13.82;2.22;;;;;;;6.89;66.88;99259.38;10161164;28;20054;-65
2021/03/11 18:35:37;;;;;;;16.60;3.10;;;;;;;6.84;66.73;99273.16;10156291;28;20136;-65
2021/03/11 18:40:33;;;;;;;11.88;2.13;;;;;;;6.81;66.92;99280.06;10173361;28;20427;-65
2021/03/11 18:45:30;;;;;;;14.02;2.45;;;;;;;6.91;65.98;99274.22;10164463;28;20431;-63
2021/03/11 18:50:27;;;;;;;13.88;2.38;;;;;;;6.96;66.01;99273.25;10165711;28;20053;-65
2021/03/11 18:55:23;;;;;;;12.65;1.75;;;;;;;7.02;65.11;99290.19;10169590;28;20535;-65
2021/03/11 19:00:40;;;;;;;17.10;2.13;;;;;;;6.91;65.70;99268.78;10166312;28;20057;-65
2021/03/11 19:05:38;;;;;;;16.42;2.60;;;;;;;6.86;66.32;99288.00;10167010;28;20082;-67
2021/03/11 19:10:36;;;;;;;17.10;2.20;;;;;;;6.85;66.14;99275.56;10157487;28;20100;-67
2021/03/11 19:15:32;;;;;;;19.20;4.95;;;;;;;6.78;66.32;99269.84;10164459;28;20108;-65
2021/03/11 19:20:31;;;;;;;13.55;2.67;;;;;;;6.76;66.46;99277.53;10169077;28;20060;-65
2021/03/11 19:25:28;;;;;;;12.20;2.42;;;;;;;6.71;66.74;99289.38;10159948;28;20047;-66
2021/03/11 19:30:28;;;;;;;18.05;2.22;;;;;;;6.72;66.35;99287.44;10158324;28;20124;-64
2021/03/11 19:35:27;;;;;;;12.88;2.10;;;;;;;6.69;66.41;99288.09;10160653;28;20046;-67
2021/03/11 19:40:36;;;;;;;14.00;2.42;;;;;;;6.69;67.08;99298.97;10148455;28;20469;-65
2021/03/11 19:45:32;;;;;;;11.75;2.08;;;;;;;6.71;66.31;99304.88;10154453;28;20523;-67
2021/03/11 19:50:28;;;;;;;14.23;2.00;;;;;;;6.70;66.16;99316.84;10169096;28;20141;-66
2021/03/11 19:55:24;;;;;;;16.10;3.45;;;;;;;6.79;66.56;99314.91;10153307;28;20056;-67
2021/03/11 20:00:22;;;;;;;14.02;2.38;;;;;;;6.71;66.63;99323.91;10155036;28;20053;-65
2021/03/11 20:05:18;;;;;;;17.67;3.30;;;;;;;6.72;67.48;99325.47;10159976;28;20096;-65
2021/03/11 20:10:18;;;;;;;16.48;2.25;;;;;;;6.66;67.64;99329.47;10175396;28;20104;-65
2021/03/11 20:15:15;;;;;;;20.70;3.13;;;;;;;6.69;67.26;99331.56;10172267;28;20088;-64
2021/03/11 20:20:11;;;;;;;14.35;1.98;;;;;;;6.72;67.65;99337.13;10172426;28;20050;-63
2021/03/11 20:25:09;;;;;;;17.30;2.10;;;;;;;6.73;68.19;99327.09;10164650;28;20078;-63
2021/03/11 20:30:07;;;;;;;13.65;2.20;;;;;;;6.73;67.87;99324.38;10168561;28;20463;-63
2021/03/11 20:35:05;;;;;;;11.48;2.03;;;;;;;6.72;67.81;99347.19;10170004;28;20053;-65
2021/03/11 20:40:00;;;;;;;11.52;2.03;;;;;;;6.72;68.26;99339.06;10167919;28;20124;-65
2021/03/11 20:44:57;;;;;;;9.65;1.70;;;;;;;6.63;69.11;99332.84;10167861;28;20062;-66
2021/03/11 20:49:53;;;;;;;12.25;1.90;;;;;;;6.61;69.69;99340.53;10168857;28;20085;-65
2021/03/11 20:54:49;;;;;;;12.48;1.70;;;;;;;6.48;70.82;99334.97;10164461;28;20050;-67
2021/03/11 20:59:46;;;;;;;14.05;1.90;;;;;;;6.48;71.11;99337.69;10154542;28;20054;-66
2021/03/11 21:04:59;;;;;;;9.73;1.67;;;;;;;6.38;71.79;99353.53;10159271;28;20089;-70
2021/03/11 21:09:55;;;;;;;11.43;1.73;;;;;;;6.11;73.65;99372.56;10173586;28;20129;-68
2021/03/11 21:14:52;;;;;;;10.23;1.52;;;;;;;6.08;73.83;99389.50;10166895;28;20056;-67
2021/03/11 21:19:48;;;;;;;7.10;1.80;;;;;;;5.93;74.28;99381.00;10158950;28;20660;-66
2021/03/11 21:24:45;;;;;;;9.40;1.52;;;;;;;6.03;74.71;99403.22;10157484;28;20053;-67
2021/03/11 21:29:41;;;;;;;5.18;1.30;;;;;;;5.94;73.74;99405.16;10173106;28;20455;-67
2021/03/11 21:34:37;;;;;;;8.63;1.65;;;;;;;5.98;73.55;99406.09;10165888;28;20046;-66
2021/03/11 21:39:34;;;;;;;9.52;1.45;;;;;;;5.99;73.07;99396.84;10173315;28;20073;-68
2021/03/11 21:44:30;;;;;;;8.90;1.20;;;;;;;5.92;73.59;99407.34;10171816;28;20104;-68
2021/03/11 21:49:26;;;;;;;13.55;1.33;;;;;;;5.90;73.50;99417.72;10164948;28;20053;-68
2021/03/11 21:54:22;;;;;;;10.57;1.65;;;;;;;5.91;73.89;99432.88;10163456;28;20104;-67
2021/03/11 21:59:18;;;;;;;13.07;1.60;;;;;;;5.84;73.78;99448.81;10163476;28;20078;-67
2021/03/11 22:04:15;;;;;;;9.27;1.33;;;;;;;5.66;74.36;99432.53;10177106;28;20097;-69
2021/03/11 22:09:13;;;;;;;7.72;1.55;;;;;;;5.52;75.54;99442.69;10170551;28;20500;-69
2021/03/11 22:14:09;;;;;;;6.68;1.50;;;;;;;5.48;75.74;99441.75;10176186;28;20050;-69
2021/03/11 22:19:05;;;;;;;11.70;2.05;;;;;;;5.40;75.75;99439.78;10154180;28;20050;-67
2021/03/11 22:24:01;;;;;;;8.77;1.23;;;;;;;5.37;76.30;99451.28;10161173;28;20439;-69
2021/03/11 22:28:56;;;;;;;5.95;1.15;;;;;;;5.28;76.70;99448.53;10158152;28;20048;-69
2021/03/11 22:33:52;;;;;;;7.40;1.40;;;;;;;5.16;76.47;99446.41;10160550;28;20108;-68
2021/03/11 22:38:48;;;;;;;7.15;1.08;;;;;;;5.18;77.33;99444.19;10157236;28;20451;-67
2021/03/11 22:43:44;;;;;;;7.13;1.70;;;;;;;5.13;77.14;99457.06;10158539;28;20046;-66
2021/03/11 22:48:40;;;;;;;10.70;2.53;;;;;;;5.06;78.06;99468.38;10167146;28;20157;-66
2021/03/11 22:53:37;;;;;;;9.38;1.35;;;;;;;5.06;77.77;99468.38;10183139;28;20053;-67
2021/03/11 22:58:33;;;;;;;10.07;1.50;;;;;;;5.01;78.32;99482.03;10161747;28;20050;-67